Time;durP1;ratioP1;P1;durP2;ratioP2;P2;SDS_P1;SDS_P2;PMS_P1;PMS_P2;Temp;Humidity;BMP_temperature;BMP_pressure;BME280_temperature;BME280_humidity;BME280_pressure;Samples;Min_cycle;Max_cycle;Signal;HPM_P1;HPM_P2
2022/09/14 00:00:52;;;;;;;;;6.33;6.33;;;;;24.18;64.09;100116.56;5076801;28;45495;-70
2022/09/14 00:03:18;;;;;;;;;7.00;5.33;;;;;24.19;63.75;100107.59;5073452;28;45475;-71
2022/09/14 00:05:44;;;;;;;;;5.67;5.67;;;;;24.16;63.82;100107.78;5055298;28;45746;-71
2022/09/14 00:08:10;;;;;;;;;6.00;6.00;;;;;24.13;63.95;100092.75;5073610;27;45406;-68
2022/09/14 00:10:40;;;;;;;;;5.00;5.00;;;;;24.12;64.03;100116.00;5055590;28;45543;-72
2022/09/14 00:13:08;;;;;;;;;7.00;6.00;;;;;23.99;64.49;100109.72;5078148;27;45333;-72
2022/09/14 00:15:38;;;;;;;;;7.00;6.67;;;;;23.89;64.70;100095.19;5074476;28;45683;-72
2022/09/14 00:18:05;;;;;;;;;7.33;7.33;;;;;23.91;64.30;100094.16;5074284;28;45426;-68
2022/09/14 00:20:32;;;;;;;;;10.67;8.33;;;;;23.83;64.27;100088.44;5076734;28;45485;-69
2022/09/14 00:22:59;;;;;;;;;7.00;7.00;;;;;23.79;64.62;100073.53;5055819;27;47880;-71
2022/09/14 00:25:25;;;;;;;;;8.67;7.67;;;;;23.67;64.81;100072.47;5055042;27;45466;-73
2022/09/14 00:27:52;;;;;;;;;7.33;7.33;;;;;23.62;65.28;100066.56;5072247;28;45456;-72
2022/09/14 00:30:18;;;;;;;;;10.00;7.67;;;;;23.56;64.98;100060.72;5073544;28;45495;-72
2022/09/14 00:32:43;;;;;;;;;6.33;6.00;;;;;23.50;65.36;100059.31;5073049;28;45782;-72
2022/09/14 00:35:09;;;;;;;;;8.33;7.00;;;;;23.48;65.63;100050.53;5076784;28;45387;-72
2022/09/14 00:37:35;;;;;;;;;6.00;6.00;;;;;23.55;65.48;100061.69;5077619;27;45548;-71
2022/09/14 00:40:01;;;;;;;;;7.00;6.00;;;;;23.62;65.78;100063.88;5071869;27;45549;-73
2022/09/14 00:42:26;;;;;;;;;7.00;6.00;;;;;23.59;65.94;100056.06;5054865;28;46821;-69
2022/09/14 00:45:00;;;;;;;;;4.67;4.67;;;;;23.56;65.61;100061.59;5073332;28;45691;-69
2022/09/14 00:47:28;;;;;;;;;9.00;7.00;;;;;23.43;65.83;100032.09;5073356;28;45563;-68
2022/09/14 00:49:54;;;;;;;;;7.00;6.00;;;;;23.46;65.78;100029.22;5075891;28;45387;-69
2022/09/14 00:52:29;;;;;;;;;7.00;5.33;;;;;23.59;65.83;100033.84;5075167;28;46601;-67
2022/09/14 00:55:02;;;;;;;;;6.00;4.67;;;;;23.56;65.70;100024.16;5081276;27;45394;-68
2022/09/14 00:57:40;;;;;;;;;7.00;5.00;;;;;23.44;65.85;100007.13;5081218;27;45362;-69
2022/09/14 01:00:09;;;;;;;;;6.00;6.00;;;;;23.48;66.17;100011.28;5068943;28;45385;-68
2022/09/14 01:02:36;;;;;;;;;6.00;5.33;;;;;23.54;66.04;100012.75;5080582;27;45362;-67
2022/09/14 01:05:02;;;;;;;;;3.67;3.67;;;;;23.42;66.13;99993.00;5044705;28;45468;-67
2022/09/14 01:07:38;;;;;;;;;5.67;5.00;;;;;23.59;66.15;100005.28;5078048;28;45315;-67
2022/09/14 01:10:42;;;;;;;;;7.33;6.00;;;;;23.47;66.27;100008.75;5079938;27;45550;-68
2022/09/14 01:13:25;;;;;;;;;4.33;4.33;;;;;23.50;66.64;100001.38;5013521;28;45354;-71
2022/09/14 01:16:10;;;;;;;;;5.33;5.33;;;;;23.46;67.25;99994.50;5072746;28;45541;-68
2022/09/14 01:18:43;;;;;;;;;7.00;5.67;;;;;23.48;67.07;99991.72;5062433;28;45396;-68
2022/09/14 01:21:14;;;;;;;;;7.00;7.00;;;;;23.40;67.73;99988.69;5062680;28;45406;-69
2022/09/14 01:23:40;;;;;;;;;8.00;6.00;;;;;23.40;68.32;99983.34;5079864;28;45479;-68
2022/09/14 01:26:21;;;;;;;;;6.33;6.33;;;;;23.29;68.21;99976.00;5074850;28;45423;-71
2022/09/14 01:28:46;;;;;;;;;7.00;6.00;;;;;23.27;68.37;99978.75;5075405;28;45581;-71
2022/09/14 01:31:18;;;;;;;;;7.33;6.33;;;;;23.29;67.94;99968.84;5076170;28;45695;-73
2022/09/14 01:33:52;;;;;;;;;6.00;6.00;;;;;23.27;68.21;99980.59;5073033;28;45726;-72
2022/09/14 01:36:20;;;;;;;;;5.33;4.67;;;;;23.28;68.24;99982.31;5072113;28;45583;-71
2022/09/14 01:38:52;;;;;;;;;5.00;5.00;;;;;23.20;68.25;99982.78;5078552;28;45457;-74
2022/09/14 01:41:23;;;;;;;;;5.00;3.67;;;;;23.20;67.87;99980.09;5076056;28;45430;-73
2022/09/14 01:43:54;;;;;;;;;5.33;4.00;;;;;23.29;67.96;99990.22;5068771;28;46545;-70
2022/09/14 01:46:28;;;;;;;;;6.00;5.00;;;;;23.29;68.35;99986.69;5078989;28;45383;-72
2022/09/14 01:48:56;;;;;;;;;4.00;4.00;;;;;23.23;68.76;99987.94;5079973;28;45547;-69
2022/09/14 01:51:30;;;;;;;;;4.00;4.00;;;;;23.24;68.74;100002.16;5076267;28;45271;-72
2022/09/14 01:54:06;;;;;;;;;5.67;4.00;;;;;23.19;68.53;99999.78;5057598;28;46272;-71
2022/09/14 01:56:48;;;;;;;;;5.00;4.00;;;;;23.32;68.48;100009.69;5079247;28;45312;-72
2022/09/14 01:59:23;;;;;;;;;9.33;7.00;;;;;23.22;69.28;99990.69;5075627;28;45393;-72
2022/09/14 02:02:11;;;;;;;;;7.00;5.00;;;;;23.12;69.22;99969.06;5063597;28;45498;-69
2022/09/14 02:04:48;;;;;;;;;7.33;6.00;;;;;23.14;70.02;99985.84;5057708;28;46679;-72
2022/09/14 02:07:15;;;;;;;;;7.33;6.67;;;;;23.05;70.33;99968.56;5079304;27;45923;-70
2022/09/14 02:09:41;;;;;;;;;7.67;7.00;;;;;23.11;69.74;99993.19;5075952;28;45466;-69
2022/09/14 02:12:07;;;;;;;;;7.67;6.00;;;;;23.10;70.15;99992.31;5058107;28;45329;-69
2022/09/14 02:14:33;;;;;;;;;7.00;7.00;;;;;23.03;70.20;99974.97;5075772;27;46341;-71
2022/09/14 02:16:59;;;;;;;;;8.00;8.00;;;;;22.85;70.80;99971.56;5057270;28;45426;-69
2022/09/14 02:19:32;;;;;;;;;9.00;8.00;;;;;22.63;71.66;99950.66;5075547;28;45530;-68
2022/09/14 02:21:58;;;;;;;;;9.33;7.00;;;;;22.74;71.49;99974.06;5057085;27;45462;-67
2022/09/14 02:24:23;;;;;;;;;8.00;7.33;;;;;22.72;71.92;99978.63;5074867;27;46339;-68
2022/09/14 02:26:51;;;;;;;;;10.33;9.00;;;;;22.67;71.78;99986.91;5056800;28;45417;-69
2022/09/14 02:29:17;;;;;;;;;8.00;8.00;;;;;22.65;71.43;99988.81;5075603;28;45321;-67
2022/09/14 02:32:07;;;;;;;;;9.67;8.67;;;;;22.71;71.50;99991.13;5075488;28;45415;-71
2022/09/14 02:34:51;;;;;;;;;10.67;8.67;;;;;22.74;71.88;100001.59;5074987;27;45767;-69
2022/09/14 02:37:56;;;;;;;;;12.33;9.67;;;;;22.70;71.65;100005.41;5074685;27;45553;-70
2022/09/14 02:40:24;;;;;;;;;8.00;6.33;;;;;22.77;71.59;100001.41;5074991;28;45534;-68
2022/09/14 02:42:59;;;;;;;;;8.33;8.33;;;;;22.78;71.30;99988.91;5061139;28;45346;-68
2022/09/14 02:45:30;;;;;;;;;8.00;7.67;;;;;22.66;71.55;99979.88;5079540;28;46134;-68
2022/09/14 02:48:13;;;;;;;;;10.33;6.67;;;;;22.80;71.29;100000.34;5061129;28;45754;-69
2022/09/14 02:50:47;;;;;;;;;7.67;7.00;;;;;22.78;71.06;99994.25;5061043;28;45469;-69
2022/09/14 02:53:36;;;;;;;;;10.67;8.33;;;;;22.75;71.20;99992.63;5078660;28;45537;-70
2022/09/14 02:56:07;;;;;;;;;6.00;6.00;;;;;22.76;71.51;99998.84;5056383;28;47665;-67
2022/09/14 02:58:41;;;;;;;;;9.00;7.33;;;;;22.75;71.31;99989.97;5077414;27;45330;-71
2022/09/14 03:01:09;;;;;;;;;6.00;5.33;;;;;22.76;70.84;99986.34;5079378;28;45620;-68
2022/09/14 03:03:34;;;;;;;;;5.00;5.00;;;;;22.77;71.12;99984.53;5044501;27;45351;-68
2022/09/14 03:06:00;;;;;;;;;5.67;5.33;;;;;22.80;70.59;100006.59;5074373;28;45508;-69
2022/09/14 03:08:27;;;;;;;;;8.33;5.00;;;;;22.84;70.37;100007.25;5074734;28;45386;-69
2022/09/14 03:10:53;;;;;;;;;7.00;4.33;;;;;22.77;70.23;99988.06;5074108;27;45794;-69
2022/09/14 03:13:19;;;;;;;;;6.00;6.00;;;;;22.86;70.27;99990.16;5056871;28;45575;-68
2022/09/14 03:15:44;;;;;;;;;5.67;5.67;;;;;22.79;70.38;99991.50;5056073;28;48057;-68
2022/09/14 03:18:11;;;;;;;;;6.33;6.33;;;;;22.70;69.75;99967.19;5074305;27;45651;-72
2022/09/14 03:20:37;;;;;;;;;6.67;6.00;;;;;22.77;69.52;99985.38;5074707;27;45454;-69
2022/09/14 03:23:04;;;;;;;;;6.33;4.67;;;;;22.76;69.51;99982.84;5056815;28;45871;-71
2022/09/14 03:25:30;;;;;;;;;7.67;6.00;;;;;22.45;69.42;99931.31;5076698;28;46740;-70
2022/09/14 03:27:58;;;;;;;;;4.33;4.33;;;;;22.75;69.25;99992.63;5056910;28;45299;-68
2022/09/14 03:30:24;;;;;;;;;8.00;6.00;;;;;22.74;69.16;99996.25;5056132;28;45517;-71
2022/09/14 03:32:50;;;;;;;;;6.00;5.33;;;;;22.69;69.19;99994.84;5077758;28;45587;-68
2022/09/14 03:35:16;;;;;;;;;5.00;5.00;;;;;22.71;68.95;99983.09;5054535;28;48012;-73
2022/09/14 03:37:43;;;;;;;;;4.00;4.00;;;;;22.73;68.74;99961.63;5075489;28;45461;-71
2022/09/14 03:40:13;;;;;;;;;5.67;5.33;;;;;22.84;68.56;99969.84;5078465;27;45507;-70
2022/09/14 03:42:43;;;;;;;;;6.00;5.33;;;;;22.85;68.64;99983.13;5074592;27;45461;-68
2022/09/14 03:45:11;;;;;;;;;6.00;5.67;;;;;22.79;68.81;99986.16;5073922;28;46692;-69
2022/09/14 03:47:38;;;;;;;;;6.67;6.00;;;;;22.71;69.32;99980.44;5068773;28;45591;-68
2022/09/14 03:50:04;;;;;;;;;5.00;4.33;;;;;22.74;69.02;99980.25;5060715;28;45676;-72
2022/09/14 03:52:30;;;;;;;;;8.00;5.00;;;;;22.71;69.48;99983.09;5066231;28;45501;-70
2022/09/14 03:54:55;;;;;;;;;6.33;4.67;;;;;22.67;69.15;99981.56;5048588;28;45955;-71
2022/09/14 03:57:21;;;;;;;;;8.00;6.00;;;;;22.65;69.37;99995.00;5068403;28;45680;-70
2022/09/14 03:59:46;;;;;;;;;7.67;5.00;;;;;22.68;69.33;99990.44;5068884;27;45593;-69
2022/09/14 04:02:12;;;;;;;;;5.00;5.00;;;;;22.75;68.80;99984.63;5073826;28;45495;-68
2022/09/14 04:04:38;;;;;;;;;4.67;4.67;;;;;22.78;69.14;99991.56;5068259;27;45354;-67
2022/09/14 04:07:04;;;;;;;;;4.00;4.00;;;;;22.72;68.77;99974.13;5070836;28;45442;-67
2022/09/14 04:09:30;;;;;;;;;4.67;3.00;;;;;22.80;68.69;99974.53;5065803;28;45466;-67
2022/09/14 04:11:55;;;;;;;;;5.67;4.33;;;;;22.81;68.45;99973.56;5065955;27;45513;-68
2022/09/14 04:14:22;;;;;;;;;4.00;4.00;;;;;22.76;68.42;99967.66;5068436;28;45977;-69
2022/09/14 04:16:48;;;;;;;;;6.33;6.00;;;;;22.70;68.58;99956.50;5073026;28;45452;-70
2022/09/14 04:19:14;;;;;;;;;5.00;5.00;;;;;22.64;68.77;99958.59;5072438;27;45603;-72
2022/09/14 04:21:39;;;;;;;;;6.33;6.00;;;;;22.63;68.81;99962.19;5064007;28;45495;-70
2022/09/14 04:24:05;;;;;;;;;6.33;6.33;;;;;22.59;69.25;99958.00;5071277;28;45661;-72
2022/09/14 04:26:31;;;;;;;;;5.00;4.33;;;;;22.67;68.66;99956.69;5050965;28;45674;-70
2022/09/14 04:28:57;;;;;;;;;5.33;4.33;;;;;22.66;68.40;99950.50;5070841;28;45458;-71
2022/09/14 04:31:24;;;;;;;;;4.00;4.00;;;;;22.74;68.42;99950.03;5070735;27;45354;-69
2022/09/14 04:33:50;;;;;;;;;4.33;4.33;;;;;22.81;67.91;99951.38;5064726;28;46340;-67
2022/09/14 04:36:21;;;;;;;;;3.67;3.33;;;;;22.73;67.88;99927.81;5071345;28;45521;-70
2022/09/14 04:38:51;;;;;;;;;6.00;4.00;;;;;22.85;67.54;99940.41;5077687;28;45284;-69
2022/09/14 04:41:19;;;;;;;;;4.00;4.00;;;;;22.86;68.05;99944.78;5074283;27;45521;-68
2022/09/14 04:43:45;;;;;;;;;4.33;4.33;;;;;22.74;68.23;99952.69;5073293;28;45541;-72
2022/09/14 04:46:19;;;;;;;;;4.33;4.33;;;;;22.72;68.39;99960.78;5077563;28;45433;-69
2022/09/14 04:48:44;;;;;;;;;5.33;5.00;;;;;22.69;68.69;99958.31;5075844;28;45383;-69
2022/09/14 04:51:15;;;;;;;;;5.00;5.00;;;;;22.69;68.44;99966.31;5073616;28;45429;-69
2022/09/14 04:53:42;;;;;;;;;4.33;4.00;;;;;22.67;68.43;99962.03;5076711;28;46100;-67
2022/09/14 04:56:09;;;;;;;;;4.00;4.00;;;;;22.64;68.40;99950.59;5059253;28;45500;-68
2022/09/14 04:58:38;;;;;;;;;5.00;4.00;;;;;22.64;68.17;99923.03;5058354;28;45485;-71
2022/09/14 05:01:12;;;;;;;;;3.33;3.33;;;;;22.80;67.77;99937.16;5055509;28;45702;-69
2022/09/14 05:03:38;;;;;;;;;3.00;3.00;;;;;22.82;67.82;99940.56;5075642;28;46183;-67
2022/09/14 05:06:06;;;;;;;;;3.67;3.67;;;;;22.84;67.53;99930.66;5077286;28;45500;-70
2022/09/14 05:08:32;;;;;;;;;4.00;4.00;;;;;22.84;67.02;99936.00;5073099;28;45375;-69
2022/09/14 05:10:58;;;;;;;;;6.00;4.00;;;;;22.90;67.04;99928.56;5073297;28;45466;-70
2022/09/14 05:13:24;;;;;;;;;4.00;3.00;;;;;22.94;67.15;99933.63;5072592;28;46407;-69
2022/09/14 05:15:50;;;;;;;;;3.00;2.67;;;;;22.80;67.47;99914.94;5074781;27;45475;-68
2022/09/14 05:18:17;;;;;;;;;4.00;4.00;;;;;22.81;67.81;99928.19;5077067;28;45441;-68
2022/09/14 05:20:42;;;;;;;;;5.00;5.00;;;;;22.80;67.60;99905.13;5074070;27;45492;-70
2022/09/14 05:23:08;;;;;;;;;5.00;4.33;;;;;22.82;67.87;99923.72;5073691;27;45544;-69
2022/09/14 05:25:33;;;;;;;;;6.67;4.00;;;;;22.74;68.04;99918.84;5075934;28;45311;-69
2022/09/14 05:27:59;;;;;;;;;5.33;5.00;;;;;22.78;68.20;99930.19;5073095;28;45561;-73
2022/09/14 05:30:25;;;;;;;;;5.00;4.00;;;;;22.65;67.85;99916.75;5075159;28;45367;-70
2022/09/14 05:32:50;;;;;;;;;5.00;5.00;;;;;22.68;67.85;99927.22;5056847;28;46919;-70
2022/09/14 05:35:16;;;;;;;;;5.00;5.00;;;;;22.50;67.99;99912.34;5075518;28;45401;-70
2022/09/14 05:37:44;;;;;;;;;5.00;4.00;;;;;22.46;68.27;99901.00;5076230;28;45817;-73
2022/09/14 05:40:10;;;;;;;;;8.33;5.33;;;;;22.60;68.08;99925.03;5076513;27;45402;-73
2022/09/14 05:42:36;;;;;;;;;4.33;4.33;;;;;22.55;68.17;99910.25;5057956;28;46739;-70
2022/09/14 05:45:01;;;;;;;;;5.00;5.00;;;;;22.60;68.29;99924.16;5075861;28;45418;-69
2022/09/14 05:47:30;;;;;;;;;5.33;5.33;;;;;22.49;68.89;99937.28;5075530;27;45707;-68
2022/09/14 05:49:56;;;;;;;;;6.00;4.00;;;;;22.26;69.65;99928.88;5075972;27;45767;-68
2022/09/14 05:52:22;;;;;;;;;7.00;7.00;;;;;22.28;69.58;99942.09;5076100;28;45464;-68
2022/09/14 05:54:48;;;;;;;;;8.33;7.67;;;;;22.22;70.16;99935.34;5075395;27;45534;-68
2022/09/14 05:57:13;;;;;;;;;7.00;7.00;;;;;22.19;70.38;99938.16;5075861;27;45458;-71
2022/09/14 05:59:39;;;;;;;;;11.00;7.00;;;;;22.23;70.75;99947.72;5057635;28;45666;-71
2022/09/14 06:02:05;;;;;;;;;5.67;5.67;;;;;22.20;70.09;99934.53;5078786;27;46264;-70
2022/09/14 06:04:30;;;;;;;;;8.33;7.33;;;;;22.29;70.23;99950.03;5079882;28;45427;-68
2022/09/14 06:06:56;;;;;;;;;8.67;7.67;;;;;22.42;69.90;99960.81;5057545;28;45584;-68
2022/09/14 06:09:22;;;;;;;;;6.00;6.00;;;;;22.45;69.89;99952.66;5076685;28;45368;-69
2022/09/14 06:11:47;;;;;;;;;7.00;6.00;;;;;22.46;69.67;99935.69;5079802;27;45437;-69
2022/09/14 06:14:18;;;;;;;;;6.00;5.00;;;;;22.35;69.65;99923.00;5058949;28;45332;-68
2022/09/14 06:16:44;;;;;;;;;6.00;6.00;;;;;22.35;69.96;99938.13;5075605;28;45377;-69
2022/09/14 06:19:11;;;;;;;;;7.67;7.00;;;;;22.35;69.95;99939.00;5075954;27;45373;-69
2022/09/14 06:21:36;;;;;;;;;5.00;5.00;;;;;22.38;69.97;99936.16;5076084;28;45448;-69
2022/09/14 06:24:03;;;;;;;;;7.00;6.67;;;;;22.43;69.65;99942.06;5080178;27;45290;-67
2022/09/14 06:26:28;;;;;;;;;7.33;6.00;;;;;22.40;69.91;99934.25;5079703;28;45338;-68
2022/09/14 06:28:54;;;;;;;;;4.67;4.67;;;;;22.49;69.70;99953.31;5061996;28;45476;-69
2022/09/14 06:31:24;;;;;;;;;7.00;5.33;;;;;22.52;69.86;99967.34;5067916;28;45948;-68
2022/09/14 06:33:51;;;;;;;;;8.00;7.67;;;;;22.40;69.66;99936.91;5068799;28;45471;-71
2022/09/14 06:36:22;;;;;;;;;6.00;6.00;;;;;22.52;69.57;99947.78;5056151;28;45506;-71
2022/09/14 06:38:51;;;;;;;;;7.00;7.00;;;;;22.51;69.27;99941.59;5075209;28;45323;-72
2022/09/14 06:41:22;;;;;;;;;7.00;4.00;;;;;22.58;69.30;99952.75;5075527;28;45366;-71
2022/09/14 06:43:49;;;;;;;;;8.33;6.67;;;;;22.61;69.40;99947.22;5075028;27;45831;-71
2022/09/14 06:46:20;;;;;;;;;5.67;5.33;;;;;22.59;69.13;99939.34;5075095;27;45341;-72
2022/09/14 06:48:48;;;;;;;;;8.67;7.33;;;;;22.60;69.22;99942.84;5076041;28;45383;-72
2022/09/14 06:51:19;;;;;;;;;6.67;5.33;;;;;22.60;69.40;99950.84;5057267;28;46480;-68
2022/09/14 06:53:46;;;;;;;;;8.00;6.00;;;;;22.48;69.61;99941.78;5077591;28;45371;-72
2022/09/14 06:56:13;;;;;;;;;11.00;8.00;;;;;22.56;69.60;99960.00;5057615;28;45929;-69
2022/09/14 06:58:39;;;;;;;;;13.33;11.00;;;;;22.51;69.88;99965.59;5073465;28;45528;-68
2022/09/14 07:01:07;;;;;;;;;12.33;11.67;;;;;22.66;69.31;99971.84;5057946;27;46169;-72
2022/09/14 07:03:36;;;;;;;;;10.67;8.67;;;;;22.61;69.08;99936.56;5043084;28;45518;-73
2022/09/14 07:06:07;;;;;;;;;7.33;7.33;;;;;22.83;68.66;99965.50;5056205;28;45534;-69
2022/09/14 07:08:36;;;;;;;;;7.33;7.33;;;;;22.87;68.68;99961.66;5075510;27;45450;-68
2022/09/14 07:11:03;;;;;;;;;8.00;8.00;;;;;22.89;68.18;99961.56;5074360;27;45474;-69
2022/09/14 07:13:29;;;;;;;;;10.00;7.33;;;;;23.01;68.15;99960.84;5078626;27;45350;-69
2022/09/14 07:15:55;;;;;;;;;8.00;6.00;;;;;23.03;67.88;99941.09;5078022;28;45442;-68
2022/09/14 07:18:30;;;;;;;;;6.33;6.33;;;;;23.14;67.38;99940.44;5074663;27;45854;-68
2022/09/14 07:21:20;;;;;;;;;7.33;7.00;;;;;23.18;67.34;99946.44;5074775;28;45536;-68
2022/09/14 07:23:47;;;;;;;;;6.00;6.00;;;;;23.13;67.65;99954.72;5056418;28;45417;-67
2022/09/14 07:26:28;;;;;;;;;9.00;7.00;;;;;23.17;68.10;99958.94;5075271;28;45650;-70
2022/09/14 07:28:58;;;;;;;;;5.33;5.33;;;;;23.31;67.23;99963.41;5069252;28;45552;-70
2022/09/14 07:31:33;;;;;;;;;9.00;5.33;;;;;23.40;67.22;99960.16;5071511;28;46106;-67
2022/09/14 07:34:02;;;;;;;;;5.67;4.67;;;;;23.48;66.47;99968.53;5051518;28;45467;-72
2022/09/14 07:36:30;;;;;;;;;6.00;6.00;;;;;23.60;66.40;99961.53;5052151;27;45467;-68
2022/09/14 07:38:55;;;;;;;;;7.33;6.00;;;;;23.74;66.23;99963.34;5074827;28;45493;-67
2022/09/14 07:41:24;;;;;;;;;5.00;5.00;;;;;23.83;66.15;99967.25;5075250;28;45650;-69
2022/09/14 07:43:55;;;;;;;;;6.67;6.67;;;;;23.92;65.91;99978.22;5074002;28;45485;-69
2022/09/14 07:46:22;;;;;;;;;5.00;5.00;;;;;24.01;65.25;99987.41;5052956;28;45681;-69
2022/09/14 07:48:56;;;;;;;;;4.00;4.00;;;;;24.10;64.90;99978.78;5054464;27;46108;-71
2022/09/14 07:51:22;;;;;;;;;6.00;5.25;;;;;24.17;64.41;99989.94;5054268;27;46040;-68
2022/09/14 07:53:49;;;;;;;;;5.67;5.67;;;;;24.14;64.33;99974.13;5070418;28;45560;-72
2022/09/14 07:56:15;;;;;;;;;6.00;5.33;;;;;24.38;63.72;99986.81;5042479;28;45982;-66
2022/09/14 07:58:43;;;;;;;;;7.67;5.33;;;;;24.44;63.45;99995.28;5051824;28;45716;-68
2022/09/14 08:01:22;;;;;;;;;7.67;5.00;;;;;24.59;63.31;100000.59;5066510;28;45560;-72
2022/09/14 08:03:49;;;;;;;;;8.67;6.00;;;;;24.76;63.07;100011.84;5069016;28;45861;-75
2022/09/14 08:06:21;;;;;;;;;5.33;5.33;;;;;25.00;62.54;100011.13;5068039;28;45572;-69
2022/09/14 08:08:49;;;;;;;;;7.50;7.50;;;;;24.98;61.67;100008.53;5070203;27;45692;-74
2022/09/14 08:11:30;;;;;;;;;8.33;8.33;;;;;25.07;61.53;100023.13;5065847;28;46267;-70
2022/09/14 08:14:02;;;;;;;;;8.50;7.50;;;;;24.93;62.23;100013.38;5070148;28;45548;-67
2022/09/14 08:16:39;;;;;;;;;8.33;7.33;;;;;25.03;61.58;100020.75;5070474;28;45944;-69
2022/09/14 08:19:10;;;;;;;;;9.75;8.25;;;;;25.18;61.44;100025.94;5069578;28;45482;-72
2022/09/14 08:21:38;;;;;;;;;10.67;8.67;;;;;25.03;60.58;100018.09;5061984;28;45455;-73
2022/09/14 08:24:04;;;;;;;;;8.25;8.25;;;;;25.12;61.23;100039.72;5077690;28;45480;-75
2022/09/14 08:26:30;;;;;;;;;10.25;9.00;;;;;25.22;61.79;100049.84;5065321;27;45520;-69
2022/09/14 08:28:59;;;;;;;;;6.75;6.25;;;;;25.50;60.72;100038.88;5040435;28;45559;-70
2022/09/14 08:31:26;;;;;;;;;12.00;10.00;;;;;25.46;59.92;100034.72;5057947;28;46113;-69
2022/09/14 08:33:57;;;;;;;;;10.50;9.00;;;;;25.42;59.92;100029.69;5069872;28;45447;-70
2022/09/14 08:36:28;;;;;;;;;11.25;9.00;;;;;25.53;59.69;100035.13;5071528;28;45632;-68
2022/09/14 08:38:54;;;;;;;;;11.67;11.33;;;;;25.37;59.55;100046.94;5070265;28;45484;-67
2022/09/14 08:41:28;;;;;;;;;9.67;9.67;;;;;25.33;60.56;100039.22;5063107;28;45626;-67
2022/09/14 08:44:04;;;;;;;;;8.00;8.00;;;;;25.59;60.04;100040.06;5072467;28;45366;-67
2022/09/14 08:46:37;;;;;;;;;7.00;6.75;;;;;25.73;59.03;100037.25;5074257;28;45441;-72
2022/09/14 08:49:10;;;;;;;;;7.25;7.25;;;;;25.80;58.44;100037.66;5073681;28;45290;-66
2022/09/14 08:51:36;;;;;;;;;6.25;6.25;;;;;25.68;58.61;100043.91;5063758;28;46235;-67
2022/09/14 08:54:02;;;;;;;;;9.00;6.00;;;;;25.52;59.43;100036.97;5044555;28;45520;-69
2022/09/14 08:56:33;;;;;;;;;10.00;7.75;;;;;25.43;59.29;100034.06;5059607;27;45807;-67
2022/09/14 08:59:33;;;;;;;;;7.50;7.50;;;;;25.29;59.87;100046.63;5052503;28;45629;-73
2022/09/14 09:02:31;;;;;;;;;10.50;7.00;;;;;25.14;59.48;100050.34;5060758;28;45635;-70
2022/09/14 09:05:14;;;;;;;;;6.50;6.50;;;;;25.11;60.26;100055.94;5046039;28;45625;-67
2022/09/14 09:08:07;;;;;;;;;9.25;8.00;;;;;25.16;60.02;100053.78;5065127;28;45569;-69
2022/09/14 09:10:43;;;;;;;;;6.00;6.00;;;;;25.42;59.97;100059.19;5070619;28;45395;-67
2022/09/14 09:13:14;;;;;;;;;6.50;6.00;;;;;25.55;59.54;100052.81;5069976;28;46045;-69
2022/09/14 09:15:54;;;;;;;;;5.00;4.50;;;;;25.76;58.98;100053.09;5053051;28;45366;-70
2022/09/14 09:18:34;;;;;;;;;9.00;7.50;;;;;25.66;58.58;100043.16;5054828;28;45648;-73
2022/09/14 09:21:16;;;;;;;;;7.25;7.25;;;;;25.81;58.30;100056.31;5054217;28;45662;-75
2022/09/14 09:23:43;;;;;;;;;7.75;7.75;;;;;25.76;58.22;100046.88;5048914;27;45564;-74
2022/09/14 09:26:08;;;;;;;;;8.50;7.00;;;;;25.73;57.53;100053.34;5071907;28;45536;-74
2022/09/14 09:28:45;;;;;;;;;6.00;6.00;;;;;25.54;58.15;100053.78;5072475;28;45532;-75
2022/09/14 09:31:13;;;;;;;;;6.00;6.00;;;;;25.55;58.03;100015.28;5072990;28;46107;-75
2022/09/14 09:33:51;;;;;;;;;6.25;5.00;;;;;26.03;58.13;100033.34;5070817;28;45966;-74
2022/09/14 09:36:17;;;;;;;;;8.75;6.25;;;;;26.18;57.11;100042.91;5060042;28;45516;-74
2022/09/14 09:38:49;;;;;;;;;11.50;9.25;;;;;25.78;57.81;100015.44;5075747;28;45370;-76
2022/09/14 09:41:21;;;;;;;;;7.50;6.50;;;;;26.19;56.97;100050.00;5071464;28;45918;-76
2022/09/14 09:44:01;;;;;;;;;6.50;6.50;;;;;26.42;55.94;100050.97;5069740;28;45550;-76
2022/09/14 09:46:33;;;;;;;;;10.75;8.50;;;;;26.02;56.26;100027.09;5073159;27;45470;-75
2022/09/14 09:49:03;;;;;;;;;8.75;8.75;;;;;25.93;56.43;100026.91;5069294;28;46439;-76
2022/09/14 09:51:31;;;;;;;;;6.75;6.00;;;;;25.99;57.04;100047.94;5066069;27;45552;-76
2022/09/14 09:54:19;;;;;;;;;9.75;7.50;;;;;26.20;56.96;100042.81;5066312;27;46114;-78
2022/09/14 09:56:57;;;;;;;;;8.50;7.25;;;;;26.35;56.01;100040.81;5065767;28;45511;-75
2022/09/14 09:59:35;;;;;;;;;7.00;7.00;;;;;26.31;55.76;100017.84;5040630;28;45912;-76
2022/09/14 10:02:28;;;;;;;;;7.75;7.00;;;;;26.33;55.33;100040.06;5060755;28;45443;-76
2022/09/14 10:05:17;;;;;;;;;6.75;6.75;;;;;26.52;55.17;100026.97;5054049;28;45642;-76
2022/09/14 10:07:59;;;;;;;;;6.50;6.50;;;;;26.90;54.62;100033.94;5062671;28;45492;-74
2022/09/14 10:10:46;;;;;;;;;11.00;7.00;;;;;27.33;53.21;100027.06;5062583;28;45601;-79
2022/09/14 10:13:33;;;;;;;;;8.25;6.25;;;;;27.69;52.08;100024.13;5061315;28;45530;-76
2022/09/14 10:16:17;;;;;;;;;6.00;5.50;;;;;28.13;51.28;100014.25;5047984;28;47804;-75
2022/09/14 10:18:48;;;;;;;;;8.00;7.00;;;;;28.36;50.43;100024.97;5059547;28;45622;-74
2022/09/14 10:21:21;;;;;;;;;5.00;5.00;;;;;28.50;50.24;100019.31;5062618;28;45711;-76
2022/09/14 10:24:19;;;;;;;;;7.75;6.00;;;;;28.64;49.10;100026.22;5061837;28;45510;-75
2022/09/14 10:26:44;;;;;;;;;6.50;5.00;;;;;28.50;49.29;100013.91;5043989;28;46238;-76
2022/09/14 10:29:34;;;;;;;;;5.25;5.25;;;;;28.33;48.44;100017.13;5059526;28;45564;-73
2022/09/14 10:32:22;;;;;;;;;7.25;6.00;;;;;28.20;49.40;100003.84;5051092;28;45410;-77
2022/09/14 10:34:50;;;;;;;;;5.25;5.25;;;;;27.86;49.30;99907.06;5063120;28;45397;-77
2022/09/14 10:37:35;;;;;;;;;7.75;6.00;;;;;28.51;47.94;99972.50;5072914;28;45897;-76
2022/09/14 10:40:17;;;;;;;;;4.00;4.00;;;;;28.85;47.44;99995.72;5075420;28;45713;-76
2022/09/14 10:43:07;;;;;;;;;6.50;5.25;;;;;28.58;46.92;99907.34;5075817;28;45413;-77
2022/09/14 10:45:50;;;;;;;;;3.50;3.50;;;;;29.09;46.17;99981.97;5045937;27;45555;-76
2022/09/14 10:48:29;;;;;;;;;4.25;4.25;;;;;29.11;45.19;99953.03;5052950;28;45715;-75
2022/09/14 10:51:46;;;;;;;;;5.00;5.00;;;;;29.29;45.13;99974.84;5049848;28;45828;-75
2022/09/14 10:57:56;;;;;;;;;5.00;5.00;;;;;29.51;45.48;99966.50;5419829;22;45742;-74
2022/09/14 11:00:22;;;;;;;;;4.00;4.00;;;;;29.27;44.49;99901.28;5049387;28;47255;-74
2022/09/14 11:02:58;;;;;;;;;3.50;3.50;;;;;29.84;44.04;99959.09;5050939;28;45872;-76
2022/09/14 11:05:36;;;;;;;;;3.40;3.40;;;;;29.55;43.35;99876.22;5051054;28;45308;-76
2022/09/14 11:08:33;;;;;;;;;3.00;3.00;;;;;30.18;41.98;99939.78;5052192;28;45480;-75
2022/09/14 11:11:03;;;;;;;;;13.50;12.25;;;;;30.29;42.18;99947.78;5045797;28;47483;-73
2022/09/14 11:14:01;;;;;;;;;30.67;28.00;;;;;30.10;41.34;99899.16;5056116;28;45377;-74
2022/09/14 11:16:46;;;;;;;;;36.00;31.00;;;;;30.55;42.07;99947.19;5055528;28;45906;-75
2022/09/14 11:19:57;;;;;;;;;19.75;19.50;;;;;30.23;39.81;99884.38;5053130;28;45262;-76
2022/09/14 11:22:29;;;;;;;;;9.75;8.00;;;;;30.80;40.42;99951.09;5048382;28;46812;-75
2022/09/14 11:25:16;;;;;;;;;8.40;7.00;;;;;31.10;40.13;99927.56;5051164;28;45516;-76
2022/09/14 11:27:45;;;;;;;;;7.80;5.60;;;;;31.60;38.26;99919.06;5051528;28;46538;-76
2022/09/14 11:30:16;;;;;;;;;5.00;5.00;;;;;32.31;37.97;99956.16;5049109;28;45585;-76
2022/09/14 11:32:50;;;;;;;;;4.00;4.00;;;;;31.77;38.17;99944.44;5048260;28;47572;-76
2022/09/14 11:35:30;;;;;;;;;8.00;4.80;;;;;31.06;39.65;99946.78;5049927;28;45665;-76
2022/09/14 11:38:21;;;;;;;;;7.80;5.20;;;;;30.99;40.17;99956.50;5048444;28;45353;-78
2022/09/14 11:41:16;;;;;;;;;4.00;4.00;;;;;30.50;39.95;99938.66;5041675;28;45389;-78
2022/09/14 11:44:23;;;;;;;;;7.50;4.25;;;;;30.28;40.66;99950.63;5049705;28;46282;-75
2022/09/14 11:47:29;;;;;;;;;5.80;5.80;;;;;30.22;40.46;99958.25;5037827;28;45708;-74
2022/09/14 11:50:25;;;;;;;;;5.40;4.40;;;;;30.02;40.15;99952.03;5049633;28;45367;-78
2022/09/14 11:53:13;;;;;;;;;5.25;4.00;;;;;29.82;41.14;99952.97;5050597;28;45703;-77
2022/09/14 11:55:48;;;;;;;;;4.40;4.00;;;;;29.65;41.39;99932.91;5051222;28;45485;-73